Blanchard Township, Maine
Current Conditions -  °F | °C
As of 3:53 PM on Sunday 21 Dec 2014 (Local Time) from KMLT Reporting Station
Overcast Overcast  
Wind Chill: 27°   Ceiling: 900
Heat Index: 27°   Visibility: 10mi
Dew Point: 24°   Wind: 0mph
Humidity: 89%   Direction: NA
Pressure: 30.34"   Gusts: NA
Location:  45.3122°N, 69.5439°W
Report Text: KMLT 212053Z AUTO 00000KT 10SM BKN009 OVC035 M03/M04 A3034 RMK AO2 SLP287 T10281044 55000
Loading
Personal Weather Stations






























Interactive Weather Map New forecast layout! Learn more

10-Day Weather Forecast

Advertisements
Track Severe Weather on mobile